createdAt,value
2022-08-18T00:00:23.482Z,76.65
2022-08-18T00:01:23.482Z,76.65
2022-08-18T00:02:28.794Z,77.14
2022-08-18T00:03:54.019Z,77.34
2022-08-18T00:04:35.399Z,77.04
2022-08-18T00:05:23.522Z,77.04
2022-08-18T00:06:23.503Z,76.75
2022-08-18T00:07:23.523Z,77.53
2022-08-18T00:08:23.533Z,77.24
2022-08-18T00:09:23.552Z,77.34
2022-08-18T00:10:23.549Z,77.34
2022-08-18T00:11:23.565Z,77.62
2022-08-18T00:12:23.569Z,77.24
2022-08-18T00:13:23.578Z,77.69
2022-08-18T00:14:23.591Z,77.92
2022-08-18T00:15:23.730Z,77.62
2022-08-18T00:16:23.599Z,77.62
2022-08-18T00:17:23.615Z,77.69
2022-08-18T00:18:23.610Z,77.53
2022-08-18T00:19:46.866Z,78.17
2022-08-18T00:20:23.625Z,77.69
2022-08-18T00:21:23.649Z,77.88
2022-08-18T00:22:23.644Z,77.82
2022-08-18T00:23:23.645Z,78.11
2022-08-18T00:24:23.649Z,77.69
2022-08-18T00:25:23.691Z,78.31
2022-08-18T00:26:23.668Z,78.07
2022-08-18T00:27:26.134Z,78.17
2022-08-18T00:28:23.805Z,77.69
2022-08-18T00:29:23.687Z,78.56
2022-08-18T00:30:31.280Z,78.46
2022-08-18T00:31:23.684Z,78.46
2022-08-18T00:32:23.720Z,78.85
2022-08-18T00:33:23.712Z,78.36
2022-08-18T00:34:23.710Z,78.66
2022-08-18T00:35:23.750Z,78.56
2022-08-18T00:36:23.719Z,78.56
2022-08-18T00:37:23.743Z,78.94
2022-08-18T00:38:25.297Z,79.14
2022-08-18T00:39:23.742Z,78.94
2022-08-18T00:40:24.005Z,79.14
2022-08-18T00:41:23.768Z,79.24
2022-08-18T00:42:28.172Z,79.14
2022-08-18T00:43:23.780Z,79.14
2022-08-18T00:44:23.794Z,79.00
2022-08-18T00:45:23.895Z,79.24
2022-08-18T00:46:23.792Z,79.68
2022-08-18T00:47:36.448Z,79.78
2022-08-18T00:48:24.065Z,78.81
2022-08-18T00:49:23.813Z,79.00
2022-08-18T00:50:23.837Z,79.58
2022-08-18T00:51:23.867Z,79.20
2022-08-18T00:52:23.839Z,79.78
2022-08-18T00:53:23.859Z,79.39
2022-08-18T00:54:23.849Z,79.58
2022-08-18T00:55:23.892Z,79.39
2022-08-18T00:56:23.878Z,79.20
2022-08-18T00:57:23.897Z,80.26
2022-08-18T00:58:23.884Z,80.36
2022-08-18T00:59:23.898Z,80.07
2022-08-18T01:00:23.903Z,79.49
2022-08-18T01:01:23.955Z,79.97
2022-08-18T01:02:23.917Z,79.68
2022-08-18T01:03:25.236Z,79.97
2022-08-18T01:04:23.930Z,79.88
2022-08-18T01:05:23.940Z,80.07
2022-08-18T01:06:23.954Z,79.88
2022-08-18T01:07:23.954Z,80.17
2022-08-18T01:08:29.223Z,80.17
2022-08-18T01:09:23.970Z,80.07
2022-08-18T01:10:23.978Z,79.88
2022-08-18T01:11:23.970Z,80.46
2022-08-18T01:12:43.873Z,80.07
2022-08-18T01:13:24.017Z,80.36
2022-08-18T01:14:24.010Z,80.17
2022-08-18T01:15:29.014Z,81.62
2022-08-18T01:16:24.030Z,81.13
2022-08-18T01:17:24.024Z,81.04
2022-08-18T01:18:24.040Z,80.36
2022-08-18T01:19:24.037Z,80.46
2022-08-18T01:20:24.053Z,81.29
2022-08-18T01:21:24.062Z,80.80
2022-08-18T01:22:24.073Z,80.90
2022-08-18T01:23:24.071Z,81.00
2022-08-18T01:24:24.093Z,80.62
2022-08-18T01:25:26.240Z,80.52
2022-08-18T01:26:24.091Z,81.04
2022-08-18T01:27:24.091Z,80.94
2022-08-18T01:28:24.106Z,80.52
2022-08-18T01:29:24.116Z,80.62
2022-08-18T01:30:24.133Z,81.00
2022-08-18T01:31:24.122Z,81.48
2022-08-18T01:32:24.129Z,81.10
2022-08-18T01:33:26.714Z,81.04
2022-08-18T01:34:24.138Z,80.90
2022-08-18T01:35:24.163Z,81.48
2022-08-18T01:36:24.154Z,81.48
2022-08-18T01:37:24.170Z,81.00
2022-08-18T01:38:24.165Z,81.48
2022-08-18T01:41:22.453Z,81.00
2022-08-18T01:41:23.492Z,80.90
2022-08-18T01:41:30.122Z,81.58
2022-08-18T01:42:24.208Z,81.48
2022-08-18T01:43:24.208Z,81.48
2022-08-18T01:44:24.215Z,81.39
2022-08-18T01:45:24.226Z,80.71
2022-08-18T01:48:10.958Z,80.80
2022-08-18T01:48:55.812Z,80.03
2022-08-18T01:49:55.803Z,80.32
2022-08-18T01:50:55.814Z,80.22
2022-08-18T01:51:55.821Z,80.32
2022-08-18T01:52:55.827Z,80.62
2022-08-18T01:53:55.849Z,81.48
2022-08-18T01:54:55.857Z,80.80
2022-08-18T01:55:55.907Z,80.90
2022-08-18T01:56:55.851Z,81.00
2022-08-18T01:57:55.874Z,81.58
2022-08-18T01:58:55.865Z,80.62
2022-08-18T01:59:55.897Z,80.80
2022-08-18T02:00:55.888Z,81.00
2022-08-18T02:01:55.957Z,80.80
2022-08-18T02:03:01.683Z,80.71
2022-08-18T02:04:06.187Z,81.45
2022-08-18T02:04:55.923Z,81.15
2022-08-18T02:05:55.926Z,80.71
2022-08-18T02:06:55.937Z,81.48
2022-08-18T02:07:55.936Z,81.35
2022-08-18T02:08:55.951Z,81.25
2022-08-18T02:09:55.941Z,81.45
2022-08-18T02:10:55.957Z,81.45
2022-08-18T02:11:56.209Z,81.25
2022-08-18T02:12:55.979Z,82.03
2022-08-18T02:13:55.992Z,82.12
2022-08-18T02:14:55.989Z,81.73
2022-08-18T02:15:55.978Z,82.60
2022-08-18T02:16:59.400Z,82.51
2022-08-18T02:17:56.006Z,82.41
2022-08-18T02:18:56.008Z,83.00
2022-08-18T02:19:56.007Z,82.22
2022-08-18T02:20:56.017Z,82.60
2022-08-18T02:21:56.024Z,83.09
2022-08-18T02:24:27.610Z,82.41
2022-08-18T02:25:27.612Z,82.41
2022-08-18T02:26:27.614Z,82.03
2022-08-18T02:27:29.285Z,83.09
2022-08-18T02:28:30.702Z,84.06
2022-08-18T02:29:27.644Z,84.64
2022-08-18T02:30:27.633Z,84.16
2022-08-18T02:32:59.332Z,81.73
2022-08-18T02:33:59.269Z,81.25
2022-08-18T02:34:59.249Z,82.76
2022-08-18T02:40:34.351Z,82.86
2022-08-18T02:45:50.057Z,82.95
2022-08-18T02:46:37.400Z,83.15
2022-08-18T02:47:37.434Z,83.05
2022-08-18T02:48:37.417Z,83.63
2022-08-18T02:49:37.429Z,83.83
2022-08-18T02:50:37.438Z,84.01
2022-08-18T02:51:37.449Z,83.92
2022-08-18T02:52:37.446Z,83.34
2022-08-18T02:53:37.462Z,83.34
2022-08-18T02:54:37.471Z,84.11
2022-08-18T02:55:37.476Z,83.53
2022-08-18T02:56:41.102Z,84.01
2022-08-18T02:57:37.505Z,84.01
2022-08-18T02:58:37.489Z,84.31
2022-08-18T02:59:37.501Z,84.41
2022-08-18T03:00:37.503Z,84.84
2022-08-18T03:01:37.558Z,84.56
2022-08-18T03:02:37.523Z,84.36
2022-08-18T03:03:37.536Z,84.75
2022-08-18T03:04:37.520Z,84.84
2022-08-18T03:05:37.550Z,85.24
2022-08-18T03:06:37.542Z,85.42
2022-08-18T03:07:37.542Z,85.72
2022-08-18T03:08:37.571Z,86.20
2022-08-18T03:09:37.561Z,85.91
2022-08-18T03:10:37.572Z,86.10
2022-08-18T03:11:37.581Z,86.40
2022-08-18T03:12:37.581Z,85.72
2022-08-18T03:13:37.600Z,86.40
2022-08-18T03:14:37.607Z,85.82
2022-08-18T03:15:37.593Z,85.72
2022-08-18T03:16:37.612Z,85.72
2022-08-18T03:17:37.632Z,86.30
2022-08-18T03:18:37.606Z,86.01
2022-08-18T03:21:16.401Z,86.49
2022-08-18T03:22:18.742Z,86.40
2022-08-18T03:23:10.053Z,86.40
2022-08-18T03:24:10.745Z,86.88
2022-08-18T03:25:09.251Z,86.74
2022-08-18T03:26:09.256Z,86.65
2022-08-18T03:27:09.248Z,87.03
2022-08-18T03:28:09.282Z,87.41
2022-08-18T03:29:09.265Z,87.41
2022-08-18T03:30:11.346Z,87.99
2022-08-18T03:31:09.292Z,88.19
2022-08-18T03:32:09.279Z,88.09
2022-08-18T03:33:09.285Z,87.99
2022-08-18T03:34:09.294Z,88.19
2022-08-18T03:36:40.891Z,88.77
2022-08-18T03:37:40.900Z,88.92
2022-08-18T03:38:40.882Z,89.21
2022-08-18T03:43:23.677Z,89.40
2022-08-18T03:43:51.271Z,89.21
2022-08-18T03:44:44.242Z,89.21
2022-08-18T03:45:44.257Z,89.21
2022-08-18T03:46:44.264Z,89.45
2022-08-18T03:47:44.281Z,89.45
2022-08-18T03:48:44.272Z,89.45
2022-08-18T03:49:44.272Z,89.59
2022-08-18T03:50:44.279Z,89.15
2022-08-18T03:51:44.289Z,89.25
2022-08-18T03:52:44.297Z,89.31
2022-08-18T03:53:44.308Z,89.79
2022-08-18T03:54:44.323Z,89.79
2022-08-18T03:55:44.323Z,89.50
2022-08-18T03:56:44.312Z,89.79
2022-08-18T03:57:44.437Z,89.89
2022-08-18T03:58:44.338Z,89.69
2022-08-18T03:59:44.340Z,89.59
2022-08-18T04:00:44.341Z,89.31
2022-08-18T04:01:44.433Z,89.79
2022-08-18T04:02:44.360Z,89.59
2022-08-18T04:03:44.362Z,90.27
2022-08-18T04:04:44.393Z,90.27
2022-08-18T04:05:44.367Z,90.47
2022-08-18T04:06:44.388Z,90.17
2022-08-18T04:07:44.495Z,90.42
2022-08-18T04:08:44.386Z,91.09
2022-08-18T04:09:44.413Z,91.09
2022-08-18T04:10:44.421Z,91.19
2022-08-18T04:11:44.472Z,91.87
2022-08-18T04:12:44.407Z,91.67
2022-08-18T04:13:44.415Z,91.97
2022-08-18T04:14:44.433Z,92.07
2022-08-18T04:15:44.450Z,92.16
2022-08-18T04:16:44.454Z,92.45
2022-08-18T04:17:56.246Z,92.55
2022-08-18T04:18:44.459Z,92.74
2022-08-18T04:19:44.469Z,92.35
2022-08-18T04:20:59.000Z,92.35
2022-08-18T04:21:44.492Z,91.87
2022-08-18T04:22:44.468Z,92.16
2022-08-18T04:23:44.534Z,91.97
2022-08-18T04:24:44.611Z,91.97
2022-08-18T04:25:44.499Z,91.49
2022-08-18T04:26:44.516Z,91.67
2022-08-18T04:27:44.496Z,92.07
2022-08-18T04:28:44.514Z,91.49
2022-08-18T04:29:44.534Z,91.49
2022-08-18T04:30:44.524Z,91.67
2022-08-18T04:31:44.531Z,91.19
2022-08-18T04:32:44.539Z,91.09
2022-08-18T04:33:44.560Z,91.58
2022-08-18T04:34:44.579Z,91.39
2022-08-18T04:35:44.563Z,91.58
2022-08-18T04:36:44.567Z,91.97
2022-08-18T04:37:44.564Z,91.39
2022-08-18T04:38:44.561Z,91.49
2022-08-18T04:39:44.723Z,91.67
2022-08-18T04:40:44.573Z,90.81
2022-08-18T04:41:44.606Z,91.00
2022-08-18T04:42:44.611Z,91.00
2022-08-18T04:43:44.602Z,91.58
2022-08-18T04:44:44.617Z,92.35
2022-08-18T04:45:44.604Z,92.45
2022-08-18T04:46:44.644Z,92.35
2022-08-18T04:47:45.397Z,93.41
2022-08-18T04:48:44.633Z,93.32
2022-08-18T04:49:44.650Z,93.99
2022-08-18T04:50:44.641Z,93.61
2022-08-18T04:52:38.362Z,94.09
2022-08-18T04:52:44.665Z,93.80
2022-08-18T04:53:44.669Z,94.33
2022-08-18T04:54:44.668Z,94.48
2022-08-18T04:55:44.676Z,94.14
2022-08-18T04:56:44.666Z,93.85
2022-08-18T04:57:44.694Z,93.99
2022-08-18T04:58:44.692Z,93.85
2022-08-18T04:59:44.685Z,93.66
2022-08-18T05:00:44.711Z,94.24
2022-08-18T05:01:44.741Z,94.19
2022-08-18T05:02:44.717Z,93.56
2022-08-18T05:03:45.424Z,93.75
2022-08-18T05:04:44.727Z,93.61
2022-08-18T05:05:44.851Z,93.17
2022-08-18T05:06:44.748Z,93.85
2022-08-18T05:07:44.895Z,93.46
2022-08-18T05:08:44.751Z,93.46
2022-08-18T05:09:44.772Z,93.37
2022-08-18T05:10:44.773Z,92.88
2022-08-18T05:11:44.778Z,91.05
2022-08-18T05:12:44.771Z,90.47
2022-08-18T05:13:44.770Z,91.05
2022-08-18T05:14:44.787Z,89.98
2022-08-18T05:16:09.062Z,89.69
2022-08-18T05:16:48.866Z,89.21
2022-08-18T05:17:44.883Z,90.37
2022-08-18T05:18:44.794Z,90.17
2022-08-18T05:19:44.837Z,89.40
2022-08-18T05:20:44.818Z,89.15
2022-08-18T05:21:44.837Z,89.25
2022-08-18T05:22:44.822Z,89.74
2022-08-18T05:23:44.838Z,88.05
2022-08-18T05:24:44.867Z,88.57
2022-08-18T05:25:44.843Z,88.24
2022-08-18T05:26:44.843Z,89.83
2022-08-18T05:27:45.069Z,88.67
2022-08-18T05:28:44.855Z,88.39
2022-08-18T05:29:46.146Z,87.32
2022-08-18T05:30:44.874Z,87.03
2022-08-18T05:31:44.903Z,86.93
2022-08-18T05:32:47.859Z,87.41
2022-08-18T05:33:44.904Z,86.83
2022-08-18T05:34:44.889Z,86.74
2022-08-18T05:35:44.904Z,87.71
2022-08-18T05:36:44.908Z,87.32
2022-08-18T05:37:44.918Z,87.41
2022-08-18T05:38:44.923Z,86.45
2022-08-18T05:39:44.967Z,86.74
2022-08-18T05:40:44.927Z,86.55
2022-08-18T05:41:44.939Z,86.93
2022-08-18T05:42:44.965Z,87.13
2022-08-18T05:43:51.715Z,86.55
2022-08-18T05:44:44.958Z,86.35
2022-08-18T05:45:44.966Z,86.16
2022-08-18T05:46:44.973Z,86.45
2022-08-18T05:47:44.980Z,86.16
2022-08-18T05:48:44.994Z,87.41
2022-08-18T05:49:44.990Z,87.61
2022-08-18T05:50:45.002Z,88.04
2022-08-18T05:51:45.004Z,87.99
2022-08-18T05:52:45.004Z,88.43
2022-08-18T05:53:45.019Z,88.19
2022-08-18T05:54:45.035Z,88.57
2022-08-18T05:55:47.881Z,87.51
2022-08-18T05:56:45.047Z,87.41
2022-08-18T05:57:45.072Z,86.25
2022-08-18T05:58:45.056Z,86.20
2022-08-18T05:59:45.048Z,86.78
2022-08-18T06:00:45.054Z,86.78
2022-08-18T06:01:45.065Z,86.49
2022-08-18T06:02:45.168Z,87.36
2022-08-18T06:03:46.762Z,86.98
2022-08-18T06:04:45.072Z,86.78
2022-08-18T06:05:45.081Z,86.10
2022-08-18T06:06:47.640Z,86.98
2022-08-18T06:07:45.146Z,87.07
2022-08-18T06:08:45.116Z,86.44
2022-08-18T06:09:45.145Z,86.54
2022-08-18T06:10:45.108Z,85.37
2022-08-18T06:11:45.175Z,85.66
2022-08-18T06:12:47.085Z,85.37
2022-08-18T06:13:45.144Z,85.37
2022-08-18T06:14:45.147Z,85.37
2022-08-18T06:15:45.154Z,85.37
2022-08-18T06:16:45.320Z,84.41
2022-08-18T06:17:49.560Z,84.06
2022-08-18T06:18:45.172Z,84.06
2022-08-18T06:19:45.168Z,84.25
2022-08-18T06:20:45.189Z,83.58
2022-08-18T06:21:45.193Z,82.70
2022-08-18T06:22:53.514Z,82.70
2022-08-18T06:23:45.222Z,82.80
2022-08-18T06:24:45.200Z,82.70
2022-08-18T06:25:45.209Z,82.80
2022-08-18T06:26:45.233Z,82.51
2022-08-18T06:27:45.327Z,83.09
2022-08-18T06:28:45.259Z,83.28
2022-08-18T06:29:45.233Z,83.13
2022-08-18T06:30:52.814Z,82.35
2022-08-18T06:31:45.285Z,82.07
2022-08-18T06:32:45.274Z,82.07
2022-08-18T06:33:45.968Z,82.26
2022-08-18T06:34:45.285Z,81.97
2022-08-18T06:35:45.296Z,81.87
2022-08-18T06:36:45.298Z,81.10
2022-08-18T06:37:45.319Z,81.00
2022-08-18T06:38:45.973Z,80.62
2022-08-18T06:39:45.338Z,79.64
2022-08-18T06:40:45.310Z,78.97
2022-08-18T06:41:45.342Z,78.67
2022-08-18T06:42:45.313Z,79.20
2022-08-18T06:43:45.322Z,79.97
2022-08-18T06:44:45.326Z,79.88
2022-08-18T06:45:45.365Z,79.58
2022-08-18T06:46:45.352Z,79.68
2022-08-18T06:47:45.387Z,79.68
2022-08-18T06:48:45.389Z,81.23
2022-08-18T06:49:45.362Z,79.20
2022-08-18T06:50:45.382Z,79.10
2022-08-18T06:51:45.374Z,79.68
2022-08-18T06:52:45.387Z,79.68
2022-08-18T06:53:45.433Z,80.36
2022-08-18T06:54:50.399Z,79.30
2022-08-18T06:55:45.401Z,79.00
2022-08-18T06:56:45.440Z,79.00
2022-08-18T06:57:45.513Z,79.04
2022-08-18T06:58:47.067Z,78.17
2022-08-18T06:59:45.429Z,77.49
2022-08-18T07:00:45.503Z,77.49
2022-08-18T07:01:45.480Z,78.27
2022-08-18T07:02:45.488Z,78.17
2022-08-18T07:03:45.466Z,78.17
2022-08-18T07:04:45.482Z,78.36
2022-08-18T07:05:45.478Z,78.50
2022-08-18T07:06:45.487Z,78.11
2022-08-18T07:07:45.487Z,78.40
2022-08-18T07:08:45.505Z,78.11
2022-08-18T07:09:45.507Z,77.53
2022-08-18T07:10:45.521Z,78.05
2022-08-18T07:11:45.518Z,77.86
2022-08-18T07:12:45.528Z,78.25
2022-08-18T07:13:45.569Z,77.47
2022-08-18T07:14:45.571Z,75.62
2022-08-18T07:15:45.579Z,76.50
2022-08-18T07:17:00.692Z,76.98
2022-08-18T07:17:45.568Z,76.31
2022-08-18T07:18:45.594Z,77.37
2022-08-18T07:19:53.534Z,77.57
2022-08-18T07:20:53.574Z,78.25
2022-08-18T07:21:52.639Z,78.54
2022-08-18T07:22:45.602Z,77.67
2022-08-18T07:23:57.550Z,77.95
2022-08-18T07:24:45.600Z,77.95
2022-08-18T07:25:53.654Z,77.57
2022-08-18T07:26:45.667Z,76.79
2022-08-18T07:27:53.441Z,76.40
2022-08-18T07:28:53.203Z,76.79
2022-08-18T07:29:45.669Z,76.21
2022-08-18T07:31:15.620Z,76.50
2022-08-18T07:31:45.662Z,76.60
2022-08-18T07:32:45.698Z,76.40
2022-08-18T07:33:45.706Z,76.01
2022-08-18T07:34:53.564Z,75.34
2022-08-18T07:35:53.354Z,74.65
2022-08-18T07:36:45.700Z,75.62
2022-08-18T07:37:45.816Z,76.40
2022-08-18T07:38:53.347Z,76.79
2022-08-18T07:39:47.373Z,77.67
2022-08-18T07:40:53.397Z,77.76
2022-08-18T07:41:53.446Z,77.57
2022-08-18T07:43:00.427Z,76.79
2022-08-18T07:43:52.786Z,76.60
2022-08-18T07:44:52.781Z,76.31
2022-08-18T07:45:45.762Z,76.89
2022-08-18T07:46:53.534Z,76.60
2022-08-18T07:47:53.790Z,76.89
2022-08-18T07:48:45.774Z,76.11
2022-08-18T07:49:59.952Z,76.40
2022-08-18T07:50:58.311Z,76.60
2022-08-18T07:51:53.595Z,76.98
2022-08-18T07:52:47.429Z,77.67
2022-08-18T07:53:54.842Z,77.08
2022-08-18T07:54:49.485Z,77.08
2022-08-18T07:55:45.815Z,76.01
2022-08-18T07:56:45.838Z,74.95
2022-08-18T07:57:45.937Z,75.24
2022-08-18T07:58:45.839Z,75.43
2022-08-18T07:59:45.852Z,76.40
2022-08-18T08:00:58.907Z,76.31
2022-08-18T08:01:45.906Z,76.31
2022-08-18T08:02:45.870Z,77.08
2022-08-18T08:03:45.876Z,77.37
2022-08-18T08:04:45.884Z,76.69
2022-08-18T08:05:45.890Z,77.57
2022-08-18T08:07:20.299Z,77.28
2022-08-18T08:07:45.905Z,77.08
2022-08-18T08:08:45.910Z,77.37
2022-08-18T08:09:49.752Z,78.05
2022-08-18T08:10:45.930Z,77.86
2022-08-18T08:11:52.982Z,77.76
2022-08-18T08:12:45.945Z,78.44
2022-08-18T08:13:55.655Z,78.09
2022-08-18T08:14:45.955Z,77.80
2022-08-18T08:15:45.967Z,78.28
2022-08-18T08:16:45.972Z,77.90
2022-08-18T08:17:46.035Z,77.90
2022-08-18T08:18:45.978Z,77.28
2022-08-18T08:20:02.066Z,77.90
2022-08-18T08:20:45.989Z,78.67
2022-08-18T08:21:52.826Z,78.48
2022-08-18T08:22:46.015Z,78.48
2022-08-18T08:23:46.022Z,78.97
2022-08-18T08:24:46.176Z,78.48
2022-08-18T08:25:47.416Z,77.80
2022-08-18T08:26:46.134Z,77.41
2022-08-18T08:27:46.109Z,77.84
2022-08-18T08:28:46.054Z,77.74
2022-08-18T08:29:46.070Z,77.64
2022-08-18T08:30:46.080Z,77.84
2022-08-18T08:31:46.082Z,78.33
2022-08-18T08:32:46.095Z,78.23
2022-08-18T08:33:46.126Z,78.33
2022-08-18T08:34:46.102Z,79.10
2022-08-18T08:35:49.411Z,78.52
2022-08-18T08:36:46.109Z,77.94
2022-08-18T08:37:46.117Z,78.07
2022-08-18T08:38:46.139Z,79.14
2022-08-18T08:39:46.184Z,78.07
2022-08-18T08:40:46.149Z,77.64
2022-08-18T08:41:46.143Z,76.61
2022-08-18T08:42:46.166Z,76.18
2022-08-18T08:43:46.160Z,76.32
2022-08-18T08:44:58.739Z,76.32
2022-08-18T08:45:46.187Z,76.12
2022-08-18T08:46:46.210Z,76.42
2022-08-18T08:47:46.265Z,76.65
2022-08-18T08:48:46.199Z,77.04
2022-08-18T08:49:46.257Z,77.04
2022-08-18T08:50:46.214Z,75.78
2022-08-18T08:51:46.233Z,75.87
2022-08-18T08:52:46.251Z,76.35
2022-08-18T08:53:46.275Z,76.84
2022-08-18T08:54:46.275Z,76.26
2022-08-18T08:55:46.254Z,76.26
2022-08-18T08:56:46.259Z,76.50
2022-08-18T08:57:46.302Z,76.59
2022-08-18T08:58:46.275Z,75.03
2022-08-18T08:59:46.291Z,76.20
2022-08-18T09:00:46.317Z,76.20
2022-08-18T09:01:46.404Z,76.20
2022-08-18T09:02:48.327Z,75.13
2022-08-18T09:03:46.322Z,75.81
2022-08-18T09:04:54.766Z,75.32
2022-08-18T09:05:46.352Z,74.26
2022-08-18T09:06:46.373Z,74.74
2022-08-18T09:07:46.371Z,75.13
2022-08-18T09:08:46.384Z,76.73
2022-08-18T09:09:46.382Z,75.16
2022-08-18T09:10:46.387Z,74.58
2022-08-18T09:11:46.398Z,74.10
2022-08-18T09:12:46.497Z,74.29
2022-08-18T09:13:46.408Z,74.68
2022-08-18T09:14:46.436Z,73.90
2022-08-18T09:15:46.460Z,74.23
2022-08-18T09:16:46.460Z,74.10
2022-08-18T09:17:46.436Z,74.62
2022-08-18T09:18:46.495Z,74.72
2022-08-18T09:19:46.494Z,74.13
2022-08-18T09:20:49.242Z,74.23
2022-08-18T09:21:46.526Z,74.33
2022-08-18T09:22:46.553Z,73.29
2022-08-18T09:23:46.495Z,73.10
2022-08-18T09:24:46.522Z,73.10
2022-08-18T09:25:46.518Z,73.19
2022-08-18T09:26:46.535Z,73.00
2022-08-18T09:28:09.797Z,73.10
2022-08-18T09:28:46.540Z,72.74
2022-08-18T09:29:46.545Z,73.13
2022-08-18T09:30:47.560Z,72.64
2022-08-18T09:31:46.575Z,73.43
2022-08-18T09:32:49.354Z,72.74
2022-08-18T09:33:46.576Z,72.06
2022-08-18T09:34:46.584Z,71.70
2022-08-18T09:35:46.606Z,71.22
2022-08-18T09:36:46.610Z,71.31
2022-08-18T09:37:46.619Z,70.83
2022-08-18T09:38:46.632Z,71.57
2022-08-18T09:39:53.174Z,70.83
2022-08-18T09:41:49.022Z,70.24
2022-08-18T09:43:46.684Z,71.31
2022-08-18T09:44:46.693Z,70.92
2022-08-18T09:45:46.697Z,71.64
2022-08-18T09:46:46.702Z,71.80
2022-08-18T09:47:48.062Z,71.22
2022-08-18T09:48:46.719Z,70.67
2022-08-18T09:50:46.736Z,70.57
2022-08-18T09:51:46.785Z,71.64
2022-08-18T09:52:46.759Z,71.35
2022-08-18T09:53:46.761Z,71.15
2022-08-18T09:54:46.772Z,71.00
2022-08-18T09:55:51.981Z,70.90
2022-08-18T09:56:53.422Z,70.70
2022-08-18T09:57:46.802Z,69.92
2022-08-18T09:58:46.831Z,69.82
2022-08-18T09:59:46.837Z,68.85
2022-08-18T10:00:46.823Z,68.85
2022-08-18T10:01:52.591Z,69.43
2022-08-18T10:02:50.534Z,68.55
2022-08-18T10:03:46.874Z,68.29
2022-08-18T10:04:46.889Z,68.49
2022-08-18T10:05:46.878Z,67.41
2022-08-18T10:06:48.699Z,68.16
2022-08-18T10:07:46.925Z,69.07
2022-08-18T10:08:46.907Z,67.77
2022-08-18T10:09:46.914Z,68.46
2022-08-18T10:11:02.184Z,69.24
2022-08-18T10:11:46.938Z,69.43
2022-08-18T10:12:46.961Z,68.55
2022-08-18T10:13:49.511Z,68.55
2022-08-18T10:14:46.974Z,67.58
2022-08-18T10:15:47.195Z,67.19
2022-08-18T10:17:13.297Z,68.88
2022-08-18T10:17:50.217Z,68.98
2022-08-18T10:18:47.012Z,67.71
2022-08-18T10:19:47.007Z,67.74
2022-08-18T10:20:47.047Z,66.66
2022-08-18T10:21:47.035Z,66.08
2022-08-18T10:22:47.100Z,65.91
2022-08-18T10:23:48.126Z,65.23
2022-08-18T10:24:47.065Z,66.05
2022-08-18T10:25:47.412Z,65.55
2022-08-18T10:26:54.541Z,66.14
2022-08-18T10:27:47.890Z,64.80
2022-08-18T10:28:47.122Z,63.82
2022-08-18T10:29:47.123Z,64.51
2022-08-18T10:31:47.203Z,62.58
2022-08-18T10:32:52.093Z,62.68
2022-08-18T10:33:47.231Z,62.61
2022-08-18T10:34:52.578Z,62.61
2022-08-18T10:35:47.201Z,60.10
2022-08-18T10:36:47.236Z,58.72
2022-08-18T10:37:47.311Z,59.70
2022-08-18T10:38:49.182Z,59.41
2022-08-18T10:39:47.307Z,59.73
2022-08-18T10:40:47.286Z,59.37
2022-08-18T10:41:47.303Z,58.61
2022-08-18T10:42:47.726Z,57.73
2022-08-18T10:44:20.944Z,57.95
2022-08-18T10:44:47.355Z,58.67
2022-08-18T10:45:59.405Z,56.90
2022-08-18T10:46:47.373Z,56.14
2022-08-18T10:47:47.419Z,54.66
2022-08-18T10:48:50.576Z,53.22
2022-08-18T10:49:47.430Z,52.95
2022-08-18T10:50:47.452Z,53.47
2022-08-18T10:51:57.848Z,53.19
2022-08-18T10:52:51.285Z,53.52
2022-08-18T10:53:47.862Z,52.56
2022-08-18T10:54:52.148Z,52.66
2022-08-18T10:56:47.563Z,49.84
2022-08-18T10:57:47.593Z,50.07
2022-08-18T10:58:47.665Z,49.48
2022-08-18T10:59:50.545Z,49.18
2022-08-18T11:00:47.621Z,49.10
2022-08-18T11:01:47.641Z,48.61
2022-08-18T11:02:48.757Z,49.22
2022-08-18T11:03:51.603Z,48.65
2022-08-18T11:04:58.681Z,47.39
2022-08-18T11:05:47.794Z,47.00
2022-08-18T11:06:47.753Z,46.30
2022-08-18T11:07:47.770Z,46.12
2022-08-18T11:08:47.818Z,46.35
2022-08-18T11:09:57.088Z,45.45
2022-08-18T11:11:06.623Z,45.78
2022-08-18T11:11:52.554Z,44.98
2022-08-18T11:12:47.867Z,44.81
2022-08-18T11:13:47.898Z,44.13
2022-08-18T11:14:50.177Z,44.06
2022-08-18T11:15:47.931Z,44.27
2022-08-18T11:16:47.938Z,43.88
2022-08-18T11:17:47.944Z,43.80
2022-08-18T11:18:49.159Z,42.63
2022-08-18T11:19:50.645Z,42.27
2022-08-18T11:20:48.030Z,41.30
2022-08-18T11:22:48.246Z,40.52
2022-08-18T11:23:48.087Z,39.72
2022-08-18T11:24:48.095Z,38.93
2022-08-18T11:25:48.346Z,38.05
2022-08-18T11:26:52.473Z,37.95
2022-08-18T11:27:48.414Z,38.53
2022-08-18T11:28:48.155Z,39.14
2022-08-18T11:29:48.204Z,38.84
2022-08-18T11:30:48.202Z,38.95
2022-08-18T11:32:55.261Z,39.80
2022-08-18T11:33:48.251Z,39.70
2022-08-18T11:35:48.302Z,38.61
2022-08-18T11:36:50.125Z,39.57
2022-08-18T11:37:53.425Z,40.14
2022-08-18T11:38:48.359Z,41.30
2022-08-18T11:39:48.424Z,42.07
2022-08-18T11:41:50.307Z,41.12
2022-08-18T11:42:48.473Z,41.42
2022-08-18T11:43:50.710Z,42.25
2022-08-18T11:44:48.499Z,42.43
2022-08-18T11:45:48.555Z,42.60
2022-08-18T11:46:51.969Z,43.49
2022-08-18T11:47:48.575Z,43.00
2022-08-18T11:48:51.406Z,43.67
2022-08-18T11:49:48.556Z,42.63
2022-08-18T11:50:54.719Z,42.65
2022-08-18T11:51:48.613Z,42.37
2022-08-18T11:52:48.710Z,42.19
2022-08-18T11:53:53.835Z,41.61
2022-08-18T11:54:50.894Z,41.14
2022-08-18T11:55:48.666Z,41.00
2022-08-18T11:56:48.682Z,41.26
2022-08-18T11:57:49.298Z,42.31
2022-08-18T11:58:50.606Z,43.06
2022-08-18T12:00:48.871Z,44.31
2022-08-18T12:01:48.750Z,44.18
2022-08-18T12:02:48.796Z,45.35
2022-08-18T12:03:48.768Z,45.32
2022-08-18T12:04:50.448Z,45.82
2022-08-18T12:06:48.825Z,46.22
2022-08-18T12:07:57.090Z,46.81
2022-08-18T12:10:48.865Z,46.66
2022-08-18T12:11:48.903Z,46.74
2022-08-18T12:12:50.128Z,47.01
2022-08-18T12:13:48.915Z,47.58
2022-08-18T12:14:48.937Z,48.47
2022-08-18T12:15:48.970Z,47.48
2022-08-18T12:17:52.266Z,47.95
2022-08-18T12:18:48.972Z,48.74
2022-08-18T12:19:49.018Z,48.35
2022-08-18T12:20:48.999Z,48.25
2022-08-18T12:21:49.013Z,49.73
2022-08-18T12:22:49.236Z,49.43
2022-08-18T12:23:49.553Z,49.82
2022-08-18T12:24:49.081Z,49.43
2022-08-18T12:25:51.800Z,49.23
2022-08-18T12:26:49.093Z,49.80
2022-08-18T12:27:49.107Z,50.09
2022-08-18T12:28:49.112Z,50.59
2022-08-18T12:29:49.437Z,49.99
2022-08-18T12:30:49.135Z,49.77
2022-08-18T12:31:49.155Z,49.87
2022-08-18T12:32:55.775Z,50.95
2022-08-18T12:34:49.203Z,50.37
2022-08-18T12:35:49.322Z,50.14
2022-08-18T12:36:49.207Z,50.34
2022-08-18T12:38:12.847Z,50.44
2022-08-18T12:38:52.114Z,50.73
2022-08-18T12:39:49.298Z,50.54
2022-08-18T12:40:49.289Z,49.75
2022-08-18T12:41:49.273Z,49.75
2022-08-18T12:42:49.315Z,49.18
2022-08-18T12:43:58.846Z,49.65
2022-08-18T12:44:49.322Z,49.35
2022-08-18T12:45:49.353Z,49.35
2022-08-18T12:46:49.361Z,49.75
2022-08-18T12:47:49.345Z,48.18
2022-08-18T12:48:49.367Z,49.26
2022-08-18T12:49:49.387Z,49.38
2022-08-18T12:50:54.389Z,49.87
2022-08-18T12:51:50.341Z,50.24
2022-08-18T12:52:49.485Z,49.46
2022-08-18T12:53:59.463Z,49.75
2022-08-18T12:54:55.271Z,50.73
2022-08-18T12:55:49.438Z,50.44
2022-08-18T12:56:49.510Z,50.73
2022-08-18T12:58:49.518Z,51.32
2022-08-18T12:59:49.497Z,52.92
2022-08-18T13:00:49.535Z,52.03
2022-08-18T13:01:49.616Z,51.45
2022-08-18T13:02:49.580Z,51.35
2022-08-18T13:03:52.733Z,50.95
2022-08-18T13:04:49.609Z,51.74
2022-08-18T13:05:49.564Z,51.64
2022-08-18T13:06:59.876Z,51.03
2022-08-18T13:07:49.597Z,50.63
2022-08-18T13:08:50.317Z,50.54
2022-08-18T13:09:53.826Z,51.22
2022-08-18T13:10:49.634Z,51.52
2022-08-18T13:11:49.649Z,50.44
2022-08-18T13:12:49.645Z,51.05
2022-08-18T13:13:53.139Z,51.12
2022-08-18T13:14:49.676Z,51.32
2022-08-18T13:15:58.122Z,51.42
2022-08-18T13:16:54.180Z,50.93
2022-08-18T13:17:49.711Z,51.03
2022-08-18T13:18:49.728Z,51.72
2022-08-18T13:19:49.738Z,51.42
2022-08-18T13:20:49.762Z,52.60
2022-08-18T13:21:49.763Z,52.62
2022-08-18T13:22:50.600Z,51.35
2022-08-18T13:23:49.793Z,51.74
2022-08-18T13:24:49.792Z,51.64
2022-08-18T13:25:49.809Z,51.57
2022-08-18T13:26:49.827Z,50.59
2022-08-18T13:27:49.889Z,51.28